TimePDT,TemperatureF,Dew PointF,Humidity,Sea Level PressureIn,VisibilityMPH,Wind Direction,Wind SpeedMPH,Gust SpeedMPH,PrecipitationIn,Events,Conditions,WindDirDegrees,DateUTC
12:15 AM,57.2,55.4,94,30.15,10.0,Calm,Calm,-,N/A,,Clear,0,2013-06-29 07:15:00
12:35 AM,57.2,55.4,94,30.15,10.0,Calm,Calm,-,N/A,,Clear,0,2013-06-29 07:35:00
12:55 AM,57.2,55.4,94,30.16,10.0,Calm,Calm,-,N/A,,Clear,0,2013-06-29 07:55:00
1:15 AM,57.2,55.4,94,30.15,10.0,Calm,Calm,-,N/A,,Clear,0,2013-06-29 08:15:00
1:35 AM,57.2,55.4,94,30.15,10.0,East,3.5,-,N/A,,Clear,90,2013-06-29 08:35:00
1:55 AM,57.2,55.4,94,30.15,10.0,Calm,Calm,-,N/A,,Clear,0,2013-06-29 08:55:00
2:15 AM,59.0,55.4,88,30.14,10.0,East,5.8,-,N/A,,Clear,90,2013-06-29 09:15:00
2:35 AM,59.0,55.4,88,30.15,10.0,Calm,Calm,-,N/A,,Clear,0,2013-06-29 09:35:00
2:55 AM,59.0,55.4,88,30.15,10.0,Calm,Calm,-,N/A,,Clear,0,2013-06-29 09:55:00
3:15 AM,57.2,55.4,94,30.16,10.0,Calm,Calm,-,N/A,,Clear,0,2013-06-29 10:15:00
3:35 AM,57.2,55.4,94,30.16,10.0,Calm,Calm,-,N/A,,Clear,0,2013-06-29 10:35:00
3:55 AM,55.4,55.4,100,30.16,10.0,North,-9999.0,-,N/A,,Clear,0,2013-06-29 10:55:00
4:15 AM,55.4,53.6,94,30.16,10.0,Calm,Calm,-,N/A,,Clear,0,2013-06-29 11:15:00
4:35 AM,55.4,53.6,94,30.16,10.0,Calm,Calm,-,N/A,,Clear,0,2013-06-29 11:35:00
4:55 AM,55.4,53.6,94,30.16,10.0,Calm,Calm,-,N/A,,Scattered Clouds,0,2013-06-29 11:55:00
5:15 AM,55.4,53.6,94,30.16,10.0,Calm,Calm,-,N/A,,Overcast,0,2013-06-29 12:15:00
5:35 AM,53.6,53.6,100,30.15,10.0,Calm,Calm,-,N/A,,Scattered Clouds,0,2013-06-29 12:35:00
5:55 AM,53.6,53.6,100,30.15,10.0,ESE,3.5,-,N/A,,Clear,110,2013-06-29 12:55:00
6:15 AM,55.4,53.6,94,30.14,10.0,East,4.6,-,N/A,,Clear,80,2013-06-29 13:15:00
6:35 AM,57.2,55.4,94,30.14,10.0,East,4.6,-,N/A,,Clear,90,2013-06-29 13:35:00
6:55 AM,59.0,57.2,94,30.14,10.0,East,4.6,-,N/A,,Clear,80,2013-06-29 13:55:00
7:15 AM,60.8,57.2,88,30.13,10.0,Calm,Calm,-,N/A,,Clear,0,2013-06-29 14:15:00
7:35 AM,60.8,57.2,88,30.13,10.0,NE,3.5,-,N/A,,Clear,50,2013-06-29 14:35:00
7:55 AM,60.8,57.2,88,30.13,10.0,Calm,Calm,-,N/A,,Clear,0,2013-06-29 14:55:00
8:15 AM,62.6,59.0,88,30.14,10.0,Calm,Calm,-,N/A,,Clear,0,2013-06-29 15:15:00
8:35 AM,62.6,59.0,88,30.14,10.0,NNW,3.5,-,N/A,,Clear,340,2013-06-29 15:35:00
8:55 AM,64.4,59.0,83,30.15,10.0,Calm,Calm,-,N/A,,Clear,0,2013-06-29 15:55:00
9:15 AM,64.4,60.8,88,30.15,7.0,NW,6.9,-,N/A,,Clear,310,2013-06-29 16:15:00
9:35 AM,64.4,60.8,88,30.15,10.0,NNW,6.9,-,N/A,,Clear,330,2013-06-29 16:35:00
9:55 AM,64.4,59.0,83,30.14,10.0,NW,4.6,-,N/A,,Clear,320,2013-06-29 16:55:00
10:15 AM,66.2,59.0,78,30.14,10.0,NW,4.6,-,N/A,,Clear,320,2013-06-29 17:15:00
10:35 AM,68.0,60.8,78,30.13,10.0,NW,5.8,-,N/A,,Clear,310,2013-06-29 17:35:00
10:55 AM,68.0,60.8,78,30.13,10.0,WNW,8.1,-,N/A,,Clear,300,2013-06-29 17:55:00
11:15 AM,66.2,60.8,83,30.13,10.0,NW,9.2,-,N/A,,Clear,320,2013-06-29 18:15:00
11:35 AM,68.0,59.0,73,30.13,10.0,NW,9.2,-,N/A,,Clear,320,2013-06-29 18:35:00
11:55 AM,68.0,60.8,78,30.12,10.0,NNW,6.9,-,N/A,,Clear,330,2013-06-29 18:55:00
12:15 PM,68.0,59.0,73,30.12,10.0,NNW,9.2,-,N/A,,Clear,330,2013-06-29 19:15:00
12:35 PM,68.0,60.8,78,30.11,10.0,NNW,9.2,-,N/A,,Clear,330,2013-06-29 19:35:00
12:55 PM,68.0,60.8,78,30.11,10.0,NNW,9.2,-,N/A,,Clear,340,2013-06-29 19:55:00
1:15 PM,71.6,62.6,73,30.10,10.0,NNW,8.1,-,N/A,,Clear,330,2013-06-29 20:15:00
1:35 PM,69.8,60.8,73,30.10,10.0,NNW,12.7,-,N/A,,Clear,330,2013-06-29 20:35:00
1:55 PM,69.8,60.8,73,30.10,10.0,NNW,15.0,-,N/A,,Clear,330,2013-06-29 20:55:00
2:15 PM,69.8,62.6,78,30.09,10.0,NNW,10.4,-,N/A,,Clear,330,2013-06-29 21:15:00
2:35 PM,69.8,60.8,73,30.09,10.0,NNW,13.8,-,N/A,,Clear,330,2013-06-29 21:35:00
2:55 PM,68.0,60.8,78,30.09,10.0,NNW,16.1,-,N/A,,Clear,330,2013-06-29 21:55:00
3:15 PM,68.0,60.8,78,30.09,10.0,NNW,17.3,-,N/A,,Clear,330,2013-06-29 22:15:00
3:35 PM,68.0,60.8,78,30.09,10.0,NNW,13.8,-,N/A,,Clear,340,2013-06-29 22:35:00
3:55 PM,69.8,60.8,73,30.08,10.0,North,12.7,17.3,N/A,,Clear,350,2013-06-29 22:55:00
4:15 PM,69.8,59.0,68,30.08,10.0,North,13.8,-,N/A,,Clear,350,2013-06-29 23:15:00
4:35 PM,71.6,59.0,64,30.07,10.0,NNW,13.8,-,N/A,,Clear,340,2013-06-29 23:35:00
4:55 PM,71.6,59.0,64,30.07,10.0,NNW,11.5,-,N/A,,Clear,340,2013-06-29 23:55:00
5:15 PM,69.8,59.0,68,30.07,10.0,NNW,13.8,-,N/A,,Clear,340,2013-06-30 00:15:00
5:35 PM,69.8,59.0,68,30.06,10.0,NNW,16.1,21.9,N/A,,Clear,340,2013-06-30 00:35:00
5:55 PM,68.0,59.0,73,30.06,10.0,NNW,13.8,-,N/A,,Clear,330,2013-06-30 00:55:00
6:15 PM,66.2,59.0,78,30.06,10.0,NNW,13.8,21.9,N/A,,Clear,340,2013-06-30 01:15:00
6:35 PM,66.2,59.0,78,30.05,10.0,North,11.5,-,N/A,,Clear,350,2013-06-30 01:35:00
6:55 PM,64.4,59.0,83,30.05,10.0,NNW,13.8,-,N/A,,Clear,340,2013-06-30 01:55:00
7:15 PM,64.4,59.0,83,30.04,10.0,NNW,11.5,18.4,N/A,,Clear,340,2013-06-30 02:15:00
7:35 PM,64.4,59.0,83,30.04,10.0,NNW,11.5,-,N/A,,Clear,340,2013-06-30 02:35:00
7:55 PM,64.4,59.0,83,30.04,10.0,North,10.4,17.3,N/A,,Clear,350,2013-06-30 02:55:00
8:15 PM,62.6,59.0,88,30.03,10.0,NNW,8.1,-,N/A,,Clear,340,2013-06-30 03:15:00
8:35 PM,62.6,59.0,88,30.03,10.0,NNW,8.1,-,N/A,,Clear,340,2013-06-30 03:35:00
8:55 PM,62.6,59.0,88,30.03,10.0,North,3.5,-,N/A,,Clear,360,2013-06-30 03:55:00
9:15 PM,62.6,59.0,88,30.03,10.0,Calm,Calm,-,N/A,,Clear,0,2013-06-30 04:15:00
9:35 PM,60.8,57.2,88,30.03,10.0,Calm,Calm,-,N/A,,Clear,0,2013-06-30 04:35:00
9:55 PM,60.8,57.2,88,30.04,10.0,Calm,Calm,-,N/A,,Clear,0,2013-06-30 04:55:00
10:15 PM,60.8,59.0,94,30.04,10.0,North,3.5,-,N/A,,Clear,350,2013-06-30 05:15:00
10:35 PM,60.8,59.0,94,30.03,10.0,Calm,Calm,-,N/A,,Clear,0,2013-06-30 05:35:00
10:55 PM,59.0,55.4,88,30.03,10.0,Calm,Calm,-,N/A,,Clear,0,2013-06-30 05:55:00
11:15 PM,57.2,55.4,94,30.03,10.0,Calm,Calm,-,N/A,,Clear,0,2013-06-30 06:15:00
11:35 PM,57.2,55.4,94,30.02,10.0,Calm,Calm,-,N/A,,Clear,0,2013-06-30 06:35:00
11:55 PM,57.2,55.4,94,30.02,10.0,Calm,Calm,-,N/A,,Clear,0,2013-06-30 06:55:00